Portada
METAR-TAF:

METAR-TAF

Aeropuertos :

Aeropuerto Internacional Rey Fahd

Dammam, Arabia Saudita

latitud: 26-28N, longitud: 049-47E, altitud: 22 m

Observación

El informe se hizo hace 54 minutos, a las 03:00 UTC
Viento 4 kt del sur
Temperatura 25°C
Humedad 50%
Presión 1007 hPa
Visibilidad 10 km o más
sin nubes por debajo de 1500 m y sin presencia de cumulonimbus.

METAR: OEDF 260300Z 19004KT CAVOK 25/14 Q1007 NOSIG

Hora: 06:54 (03:54 UTC)

Pronóstico

El informe se hizo hace 5 horas y 54 minutos, a las 22:00 UTC
Pronóstico válido del 26 a las 00 UTC al 27 a las 06 UTC
Viento 4 kt con dirección variable
Visibilidad 10 km o más
sin nubes por debajo de 1500 m y sin presencia de cumulonimbus.
Evolucionando progresivamente
del 26 a las 06 UTC al 26 a las 08 UTC
Viento 8 kt del noreste

TAF: OEDF 252200Z 2600/2706 VRB04KT CAVOK BECMG 2606/2608 04008KT

Observaciones y pronósticos meteorológicos de más de 4000 aeropuertos (mensajes METAR y TAF).

Los puntos amarillos y rojos representan las estaciones disponibles.

Ponga el ratón en el punto deseado para ver el nombre de la estación.

Haga clic para ver las observaciones y los pronósticos meteorológicos.

Para cambiar el mapa : haga clic en los botones verdes con una cruz de color negro para hacer un zoom, en el botón verde con un guión para alejar o en las flechas verdes para mapas adyacentes.


METAR-TAF: